Time;durP1;ratioP1;P1;durP2;ratioP2;P2;SDS_P1;SDS_P2;PMS_P1;PMS_P2;Temp;Humidity;BMP_temperature;BMP_pressure;BME280_temperature;BME280_humidity;BME280_pressure;Samples;Min_cycle;Max_cycle;Signal;HPM_P1;HPM_P2
2021/04/02 00:00:33;;;;;;;17.07;8.90;;;5.70;99.90;;;;;;4911341;29;20728;-62
2021/04/02 00:03:06;;;;;;;14.70;7.90;;;5.70;99.90;;;;;;4908866;29;20209;-62
2021/04/02 00:05:33;;;;;;;23.07;8.07;;;5.70;99.90;;;;;;4911239;29;20661;-62
2021/04/02 00:08:01;;;;;;;17.43;8.30;;;5.70;99.90;;;;;;4910777;29;20221;-61
2021/04/02 00:10:33;;;;;;;14.63;8.40;;;5.70;99.90;;;;;;4916704;29;20296;-61
2021/04/02 00:13:00;;;;;;;18.00;8.70;;;5.60;99.90;;;;;;4917717;29;20230;-61
2021/04/02 00:15:27;;;;;;;15.37;8.23;;;5.60;99.90;;;;;;4916282;29;20689;-61
2021/04/02 00:17:55;;;;;;;14.30;8.57;;;5.60;99.90;;;;;;4910509;29;20208;-62
2021/04/02 00:20:23;;;;;;;22.20;9.13;;;5.60;99.90;;;;;;4912080;29;20221;-61
2021/04/02 00:22:50;;;;;;;18.67;8.73;;;5.60;99.90;;;;;;4910200;29;20280;-61
2021/04/02 00:25:18;;;;;;;19.67;8.87;;;5.50;99.90;;;;;;4917978;29;20196;-61
2021/04/02 00:27:45;;;;;;;18.00;9.30;;;5.50;99.90;;;;;;4909477;29;20284;-60
2021/04/02 00:30:16;;;;;;;22.70;9.03;;;5.50;99.90;;;;;;4911648;29;20292;-61
2021/04/02 00:32:44;;;;;;;19.53;8.33;;;5.40;99.90;;;;;;4909920;29;20250;-62
2021/04/02 00:35:12;;;;;;;21.27;8.83;;;5.40;99.90;;;;;;4912294;29;20194;-61
2021/04/02 00:37:41;;;;;;;16.13;8.53;;;5.40;99.90;;;;;;4916720;29;20197;-61
2021/04/02 00:40:15;;;;;;;18.43;9.03;;;5.30;99.90;;;;;;4912422;29;20753;-62
2021/04/02 00:42:43;;;;;;;16.33;8.70;;;5.30;99.90;;;;;;4908802;29;20239;-62
2021/04/02 00:45:12;;;;;;;21.70;8.80;;;5.30;99.90;;;;;;4913233;29;20197;-61
2021/04/02 00:47:39;;;;;;;21.70;9.77;;;5.20;99.90;;;;;;4919549;29;20232;-61
2021/04/02 00:50:11;;;;;;;16.80;8.80;;;5.20;99.90;;;;;;4919291;29;20194;-61
2021/04/02 00:52:40;;;;;;;16.53;9.13;;;5.20;99.90;;;;;;4919047;29;20285;-61
2021/04/02 00:55:08;;;;;;;15.83;8.70;;;5.20;99.90;;;;;;4915135;29;20193;-61
2021/04/02 00:57:36;;;;;;;21.30;8.33;;;5.10;99.90;;;;;;4914908;29;20284;-62
2021/04/02 01:00:05;;;;;;;22.13;9.10;;;5.00;99.90;;;;;;4928365;29;20196;-61
2021/04/02 01:02:33;;;;;;;24.63;9.90;;;5.00;99.90;;;;;;4913971;29;20214;-61
2021/04/02 01:05:01;;;;;;;20.13;8.80;;;4.90;99.90;;;;;;4915106;29;20235;-61
2021/04/02 01:07:29;;;;;;;21.30;8.90;;;4.90;99.90;;;;;;4915049;29;20249;-61
2021/04/02 01:09:57;;;;;;;20.90;9.80;;;4.80;99.90;;;;;;4918085;29;20303;-61
2021/04/02 01:12:26;;;;;;;23.93;9.03;;;4.80;99.90;;;;;;4913308;29;20194;-61
2021/04/02 01:14:58;;;;;;;25.57;9.63;;;4.70;99.90;;;;;;4911447;29;20219;-61
2021/04/02 01:17:26;;;;;;;19.67;9.07;;;4.70;99.90;;;;;;4913628;29;20208;-62
2021/04/02 01:19:56;;;;;;;17.67;9.67;;;4.70;99.90;;;;;;4916042;29;20221;-61
2021/04/02 01:22:28;;;;;;;16.90;9.13;;;4.70;99.90;;;;;;4913569;29;20296;-61
2021/04/02 01:25:17;;;;;;;21.00;8.93;;;4.70;99.90;;;;;;4912856;29;20610;-61
2021/04/02 01:28:03;;;;;;;14.43;8.50;;;4.70;99.90;;;;;;4911690;29;20196;-61
2021/04/02 01:30:32;;;;;;;21.23;9.20;;;4.70;99.90;;;;;;4914489;29;20354;-61
2021/04/02 01:33:02;;;;;;;19.30;8.77;;;4.60;99.90;;;;;;4917275;29;20672;-62
2021/04/02 01:35:32;;;;;;;19.33;9.37;;;4.60;99.90;;;;;;4922779;29;20288;-61
2021/04/02 01:38:09;;;;;;;27.40;10.07;;;4.50;99.90;;;;;;4917636;29;20198;-61
2021/04/02 01:40:42;;;;;;;24.13;9.70;;;4.50;99.90;;;;;;4915589;29;20687;-61
2021/04/02 01:43:11;;;;;;;22.60;9.00;;;4.50;99.90;;;;;;4914471;29;20280;-61
2021/04/02 01:45:41;;;;;;;19.00;9.47;;;4.50;99.90;;;;;;4913029;29;20206;-61
2021/04/02 01:48:11;;;;;;;20.03;9.50;;;4.40;99.90;;;;;;4914464;29;20796;-61
2021/04/02 01:50:42;;;;;;;20.30;9.37;;;4.40;99.90;;;;;;4921807;29;20295;-61
2021/04/02 01:53:11;;;;;;;26.43;9.30;;;4.30;99.90;;;;;;4913860;29;20204;-62
2021/04/02 01:55:45;;;;;;;21.20;8.77;;;4.30;99.90;;;;;;4919659;29;20277;-61
2021/04/02 01:58:13;;;;;;;23.70;9.33;;;4.30;99.90;;;;;;4912607;29;20194;-61
2021/04/02 02:00:44;;;;;;;14.70;8.37;;;4.30;99.90;;;;;;4912532;29;20237;-61
2021/04/02 02:03:13;;;;;;;17.57;8.57;;;4.20;99.90;;;;;;4917909;29;20473;-61
2021/04/02 02:05:42;;;;;;;22.13;9.63;;;4.20;99.90;;;;;;4922131;29;20283;-61
2021/04/02 02:08:10;;;;;;;25.93;9.23;;;4.20;99.90;;;;;;4914817;29;20269;-61
2021/04/02 02:10:38;;;;;;;19.40;9.80;;;4.10;99.90;;;;;;4934067;29;20288;-61
2021/04/02 02:13:07;;;;;;;24.73;9.50;;;4.10;99.90;;;;;;4921012;29;20628;-61
2021/04/02 02:15:38;;;;;;;23.23;9.13;;;4.10;99.90;;;;;;4923679;29;20220;-61
2021/04/02 02:18:08;;;;;;;22.23;9.77;;;4.10;99.90;;;;;;4921001;29;20201;-61
2021/04/02 02:20:39;;;;;;;23.53;9.60;;;4.00;99.90;;;;;;4912187;29;20236;-61
2021/04/02 02:23:08;;;;;;;22.97;9.83;;;4.00;99.90;;;;;;4912414;29;20276;-61
2021/04/02 02:25:37;;;;;;;25.67;10.10;;;3.90;99.90;;;;;;4909661;29;20285;-61
2021/04/02 02:28:05;;;;;;;21.33;9.20;;;3.90;99.90;;;;;;4912740;29;20241;-61
2021/04/02 02:30:34;;;;;;;22.53;9.70;;;3.80;99.90;;;;;;4914706;29;20241;-61
2021/04/02 02:33:02;;;;;;;17.80;9.00;;;3.80;99.90;;;;;;4921123;29;20599;-61
2021/04/02 02:35:31;;;;;;;22.40;9.70;;;3.70;99.90;;;;;;4919316;29;20280;-61
2021/04/02 02:38:01;;;;;;;27.00;10.33;;;3.70;99.90;;;;;;4912809;29;20268;-61
2021/04/02 02:40:31;;;;;;;22.10;10.30;;;3.70;99.90;;;;;;4922311;29;20212;-61
2021/04/02 02:42:59;;;;;;;21.63;10.07;;;3.70;99.90;;;;;;4912237;29;20241;-61
2021/04/02 02:45:28;;;;;;;21.57;10.27;;;3.70;99.90;;;;;;4913228;29;20733;-61
2021/04/02 02:47:55;;;;;;;22.77;9.40;;;3.70;99.90;;;;;;4911176;29;20201;-61
2021/04/02 02:50:26;;;;;;;26.73;10.23;;;3.70;99.90;;;;;;4915162;29;20221;-61
2021/04/02 02:52:55;;;;;;;16.97;8.97;;;3.60;99.90;;;;;;4908675;29;20193;-61
2021/04/02 02:55:25;;;;;;;18.43;9.47;;;3.50;99.90;;;;;;4915843;29;20224;-61
2021/04/02 02:57:56;;;;;;;17.80;9.93;;;3.40;99.90;;;;;;4911722;29;20189;-61
2021/04/02 03:00:26;;;;;;;24.00;10.57;;;3.40;99.90;;;;;;4913717;29;20249;-61
2021/04/02 03:02:57;;;;;;;26.87;10.20;;;3.40;99.90;;;;;;4913581;29;20660;-61
2021/04/02 03:05:29;;;;;;;21.10;9.77;;;3.40;99.90;;;;;;4911323;29;20294;-61
2021/04/02 03:08:01;;;;;;;27.83;11.07;;;3.30;99.90;;;;;;4911932;29;20272;-60
2021/04/02 03:10:30;;;;;;;24.97;11.57;;;3.30;99.90;;;;;;4919766;29;20279;-61
2021/04/02 03:13:00;;;;;;;26.43;12.40;;;3.40;99.90;;;;;;4911276;29;20225;-61
2021/04/02 03:15:28;;;;;;;21.63;11.00;;;3.40;99.90;;;;;;4915599;29;20305;-61
2021/04/02 03:17:59;;;;;;;28.53;11.70;;;3.30;99.90;;;;;;4914462;29;20235;-60
2021/04/02 03:20:28;;;;;;;21.70;11.87;;;3.30;99.90;;;;;;4905489;29;20197;-61
2021/04/02 03:22:57;;;;;;;24.33;11.37;;;3.30;99.90;;;;;;4914633;29;20684;-61
2021/04/02 03:25:27;;;;;;;21.10;10.87;;;3.30;99.90;;;;;;4914035;29;20236;-60
2021/04/02 03:27:56;;;;;;;27.27;11.53;;;3.30;99.90;;;;;;4912095;29;20284;-61
2021/04/02 03:30:24;;;;;;;22.53;11.27;;;3.20;99.90;;;;;;4912702;29;20289;-61
2021/04/02 03:33:01;;;;;;;23.63;10.83;;;3.20;99.90;;;;;;4916605;29;20207;-61
2021/04/02 03:35:30;;;;;;;22.77;10.97;;;3.10;99.90;;;;;;4911920;29;20205;-61
2021/04/02 03:37:58;;;;;;;25.27;11.00;;;3.10;99.90;;;;;;4910775;29;20681;-60
2021/04/02 03:40:27;;;;;;;28.63;11.17;;;3.10;99.90;;;;;;4914192;29;20280;-61
2021/04/02 03:42:58;;;;;;;32.70;10.83;;;3.10;99.90;;;;;;4908719;29;20292;-61
2021/04/02 03:45:28;;;;;;;24.17;11.27;;;3.10;99.90;;;;;;4923790;29;20209;-61
2021/04/02 03:47:57;;;;;;;25.33;12.57;;;3.00;99.90;;;;;;4913126;29;20560;-61
2021/04/02 03:50:31;;;;;;;22.23;11.07;;;3.00;99.90;;;;;;4914898;29;20616;-60
2021/04/02 03:53:09;;;;;;;23.50;11.60;;;3.00;99.90;;;;;;4911458;29;20268;-62
2021/04/02 03:55:42;;;;;;;24.93;11.30;;;3.00;99.90;;;;;;4912242;29;20687;-62
2021/04/02 03:58:11;;;;;;;28.17;12.83;;;3.00;99.90;;;;;;4911318;29;20610;-62
2021/04/02 04:00:46;;;;;;;21.63;10.90;;;3.00;99.90;;;;;;4922511;29;20209;-61
2021/04/02 04:03:15;;;;;;;21.50;11.27;;;3.00;99.90;;;;;;4912202;29;20210;-62
2021/04/02 04:05:44;;;;;;;33.17;12.10;;;2.90;99.90;;;;;;4914904;29;20240;-61
2021/04/02 04:08:14;;;;;;;24.60;11.77;;;2.90;99.90;;;;;;4912923;29;20211;-61
2021/04/02 04:10:43;;;;;;;30.13;11.83;;;2.90;99.90;;;;;;4911297;29;20268;-62
2021/04/02 04:13:15;;;;;;;25.57;11.37;;;2.90;99.90;;;;;;4913194;29;20204;-62
2021/04/02 04:15:45;;;;;;;32.30;11.73;;;2.80;99.90;;;;;;4911728;29;20752;-62
2021/04/02 04:18:14;;;;;;;30.43;11.63;;;2.80;99.90;;;;;;4915287;29;20304;-62
2021/04/02 04:20:42;;;;;;;23.43;11.03;;;2.70;99.90;;;;;;4915288;29;20205;-61
2021/04/02 04:23:10;;;;;;;22.27;11.03;;;2.70;99.90;;;;;;4920853;29;20228;-62
2021/04/02 04:25:39;;;;;;;22.57;10.70;;;2.70;99.90;;;;;;4919832;29;20676;-60
2021/04/02 04:28:09;;;;;;;26.50;10.40;;;2.70;99.90;;;;;;4908605;29;20669;-62
2021/04/02 04:30:38;;;;;;;20.63;11.37;;;2.60;99.90;;;;;;4917073;29;20245;-61
2021/04/02 04:33:07;;;;;;;24.37;10.97;;;2.70;99.90;;;;;;4906592;29;20257;-62
2021/04/02 04:35:36;;;;;;;20.70;10.37;;;2.60;99.90;;;;;;4921350;29;20260;-62
2021/04/02 04:38:05;;;;;;;20.87;10.30;;;2.60;99.90;;;;;;4915140;29;20621;-62
2021/04/02 04:40:34;;;;;;;18.73;10.20;;;2.50;99.90;;;;;;4915746;29;20293;-62
2021/04/02 04:43:07;;;;;;;22.47;10.00;;;2.50;99.90;;;;;;4914224;29;20220;-62
2021/04/02 04:45:37;;;;;;;25.43;10.13;;;2.50;99.90;;;;;;4917687;29;20201;-62
2021/04/02 04:48:05;;;;;;;22.13;10.50;;;2.50;99.90;;;;;;4915487;29;20225;-62
2021/04/02 04:50:33;;;;;;;24.90;10.73;;;2.50;99.90;;;;;;4921669;29;20215;-61
2021/04/02 04:53:06;;;;;;;20.63;9.97;;;2.50;99.90;;;;;;4912920;29;20202;-62
2021/04/02 04:55:37;;;;;;;28.83;10.40;;;2.50;99.90;;;;;;4914562;29;20221;-62
2021/04/02 04:58:11;;;;;;;23.07;10.00;;;2.50;99.90;;;;;;4915327;29;20208;-62
2021/04/02 05:00:40;;;;;;;20.80;10.33;;;2.50;99.90;;;;;;4912950;29;20190;-62
2021/04/02 05:03:11;;;;;;;19.73;9.90;;;2.50;99.90;;;;;;4914478;29;20217;-61
2021/04/02 05:05:40;;;;;;;21.57;9.57;;;2.40;99.90;;;;;;4915979;29;20280;-62
2021/04/02 05:08:12;;;;;;;28.20;10.57;;;2.40;99.90;;;;;;4915265;29;20281;-62
2021/04/02 05:10:42;;;;;;;25.67;9.60;;;2.40;99.90;;;;;;4913549;29;20817;-62
2021/04/02 05:13:12;;;;;;;22.73;10.50;;;2.40;99.90;;;;;;4914710;29;20200;-62
2021/04/02 05:15:40;;;;;;;19.07;9.83;;;2.30;99.90;;;;;;4924838;29;20225;-61
2021/04/02 05:18:12;;;;;;;21.70;9.37;;;2.30;99.90;;;;;;4917270;29;20197;-62
2021/04/02 05:20:41;;;;;;;21.17;9.80;;;2.20;99.90;;;;;;4914416;29;20252;-62
2021/04/02 05:23:09;;;;;;;22.73;9.13;;;2.20;99.90;;;;;;4912956;29;20221;-61
2021/04/02 05:25:36;;;;;;;18.70;9.60;;;2.20;99.90;;;;;;4914876;29;20199;-62
2021/04/02 05:28:04;;;;;;;15.03;9.57;;;2.10;99.90;;;;;;4909604;29;20201;-62
2021/04/02 05:30:33;;;;;;;24.43;10.03;;;2.10;99.90;;;;;;4905671;29;20758;-62
2021/04/02 05:33:01;;;;;;;23.30;9.80;;;2.10;99.90;;;;;;4917948;29;20288;-60
2021/04/02 05:35:28;;;;;;;21.20;9.97;;;2.00;99.90;;;;;;4914265;29;20250;-62
2021/04/02 05:37:55;;;;;;;17.93;10.17;;;2.00;99.90;;;;;;4912291;29;20234;-62
2021/04/02 05:40:24;;;;;;;14.87;9.50;;;2.00;99.90;;;;;;4909898;29;20198;-61
2021/04/02 05:42:55;;;;;;;21.33;10.97;;;2.00;99.90;;;;;;4914732;29;20200;-61
2021/04/02 05:45:23;;;;;;;19.47;9.90;;;2.00;99.90;;;;;;4910941;29;20190;-62
2021/04/02 05:47:53;;;;;;;15.17;9.70;;;2.00;99.90;;;;;;4912305;29;20249;-61
2021/04/02 05:50:21;;;;;;;23.67;10.83;;;2.10;99.90;;;;;;4924688;29;20206;-62
2021/04/02 05:52:50;;;;;;;23.00;10.73;;;2.10;99.90;;;;;;4906256;29;20229;-61
2021/04/02 05:55:18;;;;;;;18.83;11.23;;;2.20;99.90;;;;;;4918480;29;20189;-62
2021/04/02 05:57:46;;;;;;;20.33;10.53;;;2.30;99.90;;;;;;4920534;29;20285;-61
2021/04/02 06:00:15;;;;;;;25.77;11.40;;;2.40;99.90;;;;;;4919503;29;20765;-62
2021/04/02 06:02:43;;;;;;;23.83;11.20;;;2.50;99.90;;;;;;4915977;29;20194;-62
2021/04/02 06:05:12;;;;;;;18.07;11.27;;;2.60;99.90;;;;;;4918613;29;20700;-62
2021/04/02 06:07:40;;;;;;;22.73;11.60;;;2.70;99.90;;;;;;4905820;29;20193;-61
2021/04/02 06:10:09;;;;;;;29.93;11.53;;;2.80;99.90;;;;;;4915274;29;20214;-62
2021/04/02 06:12:36;;;;;;;20.73;11.60;;;2.90;99.90;;;;;;4910203;29;20248;-62
2021/04/02 06:15:05;;;;;;;29.27;12.30;;;3.10;99.90;;;;;;4914304;29;20190;-62
2021/04/02 06:17:57;;;;;;;22.33;11.60;;;3.30;99.90;;;;;;4912432;29;20213;-62
2021/04/02 06:20:26;;;;;;;31.00;11.23;;;3.50;99.90;;;;;;4907128;29;20224;-62
2021/04/02 06:23:11;;;;;;;20.20;11.13;;;3.80;99.90;;;;;;4911886;29;20201;-62
2021/04/02 06:25:45;;;;;;;18.47;10.53;;;4.10;99.90;;;;;;4912734;29;20212;-62
2021/04/02 06:28:16;;;;;;;16.73;9.40;;;4.40;99.90;;;;;;4912394;29;20204;-62
2021/04/02 06:30:44;;;;;;;17.83;9.53;;;4.60;99.90;;;;;;4911524;29;20233;-62
2021/04/02 06:33:12;;;;;;;19.77;8.80;;;4.90;99.90;;;;;;4922055;29;20251;-62
2021/04/02 06:35:44;;;;;;;10.97;7.27;;;5.30;99.90;;;;;;4913661;29;20236;-62
2021/04/02 06:38:12;;;;;;;15.23;7.47;;;5.90;99.90;;;;;;4911077;29;20198;-62
2021/04/02 06:40:39;;;;;;;11.73;7.40;;;6.50;99.90;;;;;;4914465;29;20201;-62
2021/04/02 06:43:07;;;;;;;14.70;6.70;;;6.90;99.90;;;;;;4919377;29;20214;-62
2021/04/02 06:45:35;;;;;;;18.97;6.73;;;7.20;99.90;;;;;;4912036;29;20717;-62
2021/04/02 06:48:10;;;;;;;12.00;6.20;;;7.10;99.90;;;;;;4912262;29;20676;-62
2021/04/02 06:50:39;;;;;;;13.90;6.10;;;6.90;99.90;;;;;;4916115;29;20194;-62
2021/04/02 06:53:07;;;;;;;19.13;6.50;;;6.60;99.90;;;;;;4916966;29;20308;-62
2021/04/02 06:55:37;;;;;;;10.00;6.87;;;6.40;99.90;;;;;;4921860;29;20197;-62
2021/04/02 06:58:09;;;;;;;14.27;7.60;;;6.30;99.90;;;;;;4911909;29;20197;-62
2021/04/02 07:00:39;;;;;;;8.67;6.73;;;6.30;99.90;;;;;;4912294;29;20193;-62
2021/04/02 07:03:08;;;;;;;15.67;6.47;;;6.30;99.90;;;;;;4910362;29;20284;-62
2021/04/02 07:05:36;;;;;;;13.57;6.03;;;6.40;99.90;;;;;;4913436;29;20193;-62
2021/04/02 07:08:06;;;;;;;11.60;6.30;;;6.60;99.90;;;;;;4910952;29;20297;-61
2021/04/02 07:10:37;;;;;;;11.97;5.93;;;6.60;99.90;;;;;;4910692;29;20229;-61
2021/04/02 07:13:07;;;;;;;9.63;5.50;;;6.70;99.90;;;;;;4915536;29;20600;-61
2021/04/02 07:15:35;;;;;;;10.33;6.00;;;6.60;99.90;;;;;;4919097;29;21086;-61
2021/04/02 07:18:05;;;;;;;7.90;5.93;;;6.60;99.90;;;;;;4910204;29;20870;-61
2021/04/02 07:20:33;;;;;;;14.10;6.57;;;6.60;99.90;;;;;;4919363;29;20200;-61
2021/04/02 07:23:03;;;;;;;9.67;6.00;;;6.60;99.90;;;;;;4928321;29;20260;-61
2021/04/02 07:25:32;;;;;;;10.83;5.63;;;6.60;99.90;;;;;;4918239;29;20207;-61
2021/04/02 07:28:00;;;;;;;13.77;6.47;;;6.80;99.90;;;;;;4913407;29;20201;-61
2021/04/02 07:30:31;;;;;;;14.90;5.90;;;6.90;99.90;;;;;;4916013;29;20284;-61
2021/04/02 07:33:02;;;;;;;20.30;6.70;;;7.40;99.90;;;;;;4913981;29;20210;-61
2021/04/02 07:35:29;;;;;;;8.63;5.23;;;8.00;99.90;;;;;;4918487;29;20752;-62
2021/04/02 07:38:02;;;;;;;7.47;4.40;;;8.70;99.90;;;;;;4913939;29;20213;-62
2021/04/02 07:40:33;;;;;;;8.20;3.70;;;8.70;99.90;;;;;;4915895;29;20868;-61
2021/04/02 07:43:04;;;;;;;8.57;3.80;;;8.80;99.90;;;;;;4918022;29;20230;-61
2021/04/02 07:45:33;;;;;;;10.87;4.07;;;9.40;99.90;;;;;;4911025;29;20228;-61
2021/04/02 07:48:12;;;;;;;6.27;3.17;;;9.70;99.90;;;;;;4914044;29;20421;-61
2021/04/02 07:50:43;;;;;;;10.60;4.40;;;10.10;99.90;;;;;;4918481;29;20205;-61
2021/04/02 07:53:17;;;;;;;10.37;4.00;;;10.50;99.90;;;;;;4918572;29;20304;-62
2021/04/02 07:55:56;;;;;;;7.23;3.77;;;11.10;99.90;;;;;;4919303;29;20189;-62
2021/04/02 07:58:25;;;;;;;11.17;4.23;;;11.60;99.90;;;;;;4912329;29;20193;-62
2021/04/02 08:00:57;;;;;;;5.40;3.83;;;11.60;99.90;;;;;;4897129;29;20732;-62
2021/04/02 08:03:26;;;;;;;7.33;3.73;;;11.70;99.90;;;;;;4911737;29;20205;-62
2021/04/02 08:06:05;;;;;;;3.70;3.40;;;11.90;99.90;;;;;;4919580;29;20198;-62
2021/04/02 08:08:43;;;;;;;13.57;3.37;;;12.10;99.90;;;;;;4907440;29;20213;-62
2021/04/02 08:11:15;;;;;;;5.90;3.13;;;12.40;99.90;;;;;;4910411;29;20205;-63
2021/04/02 08:13:52;;;;;;;6.63;3.60;;;12.70;99.90;;;;;;4911035;29;20221;-62
2021/04/02 08:16:46;;;;;;;11.80;3.47;;;12.90;99.90;;;;;;4918828;29;20197;-63
2021/04/02 08:19:15;;;;;;;6.73;3.50;;;13.40;99.90;;;;;;4907606;29;20257;-63
2021/04/02 08:21:46;;;;;;;8.53;3.40;;;13.90;99.90;;;;;;4909941;29;20206;-63
2021/04/02 08:24:19;;;;;;;7.37;3.43;;;13.40;99.90;;;;;;4911651;29;20321;-63
2021/04/02 08:26:49;;;;;;;5.87;2.83;;;13.10;99.90;;;;;;4912353;29;20208;-63
2021/04/02 08:29:18;;;;;;;9.63;3.90;;;13.20;99.90;;;;;;4911275;29;20784;-66
2021/04/02 08:31:49;;;;;;;7.70;3.07;;;13.40;99.90;;;;;;4912988;29;20246;-63
2021/04/02 08:34:20;;;;;;;8.37;3.77;;;14.20;99.90;;;;;;4912425;29;20213;-63
2021/04/02 08:36:50;;;;;;;7.23;4.13;;;14.80;99.90;;;;;;4912208;29;20209;-63
2021/04/02 08:39:22;;;;;;;4.83;3.90;;;15.20;99.90;;;;;;4914003;29;20199;-63
2021/04/02 08:41:54;;;;;;;8.90;5.07;;;14.20;99.90;;;;;;4914210;29;20249;-63
2021/04/02 08:44:28;;;;;;;5.70;4.47;;;14.20;99.90;;;;;;4913078;29;20213;-62
2021/04/02 08:46:58;;;;;;;7.43;5.47;;;13.70;99.90;;;;;;4927060;29;20291;-63
2021/04/02 08:49:26;;;;;;;8.53;4.73;;;14.30;99.90;;;;;;4922876;29;20284;-63
2021/04/02 08:51:54;;;;;;;8.20;5.60;;;15.10;99.90;;;;;;4920772;29;20272;-63
2021/04/02 08:54:23;;;;;;;9.57;5.27;;;15.20;99.90;;;;;;4914949;29;20293;-62
2021/04/02 08:56:51;;;;;;;7.93;4.87;;;14.20;99.90;;;;;;4903424;29;20245;-62
2021/04/02 08:59:19;;;;;;;8.60;5.03;;;14.00;99.90;;;;;;4912502;29;20229;-63
2021/04/02 09:01:48;;;;;;;6.83;5.70;;;13.90;99.90;;;;;;4911104;29;20241;-63
2021/04/02 09:04:17;;;;;;;9.60;6.10;;;14.80;99.90;;;;;;4911870;29;20213;-63
2021/04/02 09:06:45;;;;;;;9.13;6.10;;;13.50;99.90;;;;;;4928255;29;20276;-62
2021/04/02 09:09:18;;;;;;;8.17;6.37;;;13.20;99.90;;;;;;4916717;29;20697;-62
2021/04/02 09:11:47;;;;;;;8.30;6.13;;;12.70;99.90;;;;;;4919247;29;20193;-62
2021/04/02 09:14:16;;;;;;;9.40;5.77;;;12.30;99.90;;;;;;4923066;29;20277;-62
2021/04/02 09:16:46;;;;;;;8.87;5.97;;;11.70;99.90;;;;;;4915764;29;20205;-62
2021/04/02 09:19:14;;;;;;;9.30;6.63;;;11.00;99.90;;;;;;4924756;29;20241;-62
2021/04/02 09:21:54;;;;;;;9.50;6.73;;;10.30;99.90;;;;;;4914005;29;20197;-62
2021/04/02 09:24:22;;;;;;;7.80;6.97;;;10.00;99.90;;;;;;4917435;29;20788;-62
2021/04/02 09:26:50;;;;;;;8.67;6.67;;;10.00;99.90;;;;;;4917846;29;20248;-62
2021/04/02 09:29:20;;;;;;;13.53;7.20;;;9.90;99.90;;;;;;4913520;29;20237;-62
2021/04/02 09:31:48;;;;;;;10.90;6.87;;;9.70;99.90;;;;;;4928781;29;20208;-62
2021/04/02 09:34:18;;;;;;;9.77;6.50;;;9.70;99.90;;;;;;4913819;29;20626;-62
2021/04/02 09:36:47;;;;;;;10.50;6.47;;;9.80;99.90;;;;;;4913204;29;21024;-62
2021/04/02 09:39:17;;;;;;;8.20;5.53;;;9.70;99.90;;;;;;4920706;29;20207;-62
2021/04/02 09:41:51;;;;;;;7.60;5.53;;;10.70;99.90;;;;;;4911405;29;20729;-62
2021/04/02 09:44:23;;;;;;;8.47;4.50;;;12.00;99.90;;;;;;4913062;29;20224;-62
2021/04/02 09:46:52;;;;;;;6.63;3.80;;;13.40;99.90;;;;;;4910956;29;20233;-63
2021/04/02 09:49:22;;;;;;;5.63;3.90;;;13.40;99.90;;;;;;4927556;29;20198;-62
2021/04/02 09:51:51;;;;;;;4.20;3.80;;;11.70;99.90;;;;;;4913415;29;20981;-62
2021/04/02 09:54:19;;;;;;;8.17;4.17;;;11.40;99.90;;;;;;4916113;29;20257;-62
2021/04/02 09:56:49;;;;;;;5.63;5.00;;;12.00;99.90;;;;;;4917044;29;20202;-62
2021/04/02 09:59:16;;;;;;;7.67;3.67;;;12.80;99.90;;;;;;4921786;29;20245;-63
2021/04/02 10:01:46;;;;;;;6.43;3.83;;;13.60;99.90;;;;;;4913702;29;20740;-63
2021/04/02 10:04:14;;;;;;;4.30;3.87;;;14.40;99.90;;;;;;4913602;29;20212;-63
2021/04/02 10:06:43;;;;;;;5.93;3.63;;;15.60;99.90;;;;;;4913625;29;20194;-62
2021/04/02 10:09:11;;;;;;;5.20;4.80;;;14.80;99.90;;;;;;4922190;29;20702;-62
2021/04/02 10:11:42;;;;;;;4.47;3.50;;;14.90;99.90;;;;;;4910088;29;20198;-62
2021/04/02 10:14:09;;;;;;;7.40;3.30;;;15.40;99.90;;;;;;4923149;29;20200;-63
2021/04/02 10:16:37;;;;;;;5.57;2.90;;;16.40;99.90;;;;;;4915542;29;20201;-63
2021/04/02 10:19:05;;;;;;;8.47;3.30;;;17.30;99.90;;;;;;4913726;29;20638;-63
2021/04/02 10:21:33;;;;;;;6.73;2.97;;;18.00;99.90;;;;;;4913049;29;20236;-63
2021/04/02 10:24:01;;;;;;;6.33;2.67;;;18.60;99.90;;;;;;4911345;29;20715;-63
2021/04/02 10:26:29;;;;;;;6.27;2.90;;;18.30;99.90;;;;;;4917151;29;20224;-63
2021/04/02 10:28:58;;;;;;;4.20;2.70;;;17.30;99.90;;;;;;4910533;29;20194;-63
2021/04/02 10:31:28;;;;;;;6.97;3.57;;;16.30;99.90;;;;;;4914604;29;20305;-63
2021/04/02 10:33:55;;;;;;;14.70;5.70;;;15.50;99.90;;;;;;4917554;29;20280;-62
2021/04/02 10:36:23;;;;;;;7.53;3.93;;;14.80;99.90;;;;;;4910490;29;20197;-62
2021/04/02 10:38:51;;;;;;;4.40;4.00;;;14.40;99.90;;;;;;4911300;29;20209;-63
2021/04/02 10:41:18;;;;;;;5.97;4.33;;;15.20;99.90;;;;;;4918717;29;20292;-63
2021/04/02 10:43:46;;;;;;;7.20;3.93;;;15.20;99.90;;;;;;4895426;29;20632;-63
2021/04/02 10:46:14;;;;;;;8.47;4.20;;;16.40;99.90;;;;;;4922555;29;20197;-63
2021/04/02 10:48:41;;;;;;;6.63;3.40;;;17.00;99.90;;;;;;4913181;29;20229;-63
2021/04/02 10:51:09;;;;;;;11.17;3.30;;;17.90;99.90;;;;;;4914293;29;20300;-63
2021/04/02 10:53:37;;;;;;;4.67;3.10;;;16.80;99.80;;;;;;4913428;29;20198;-63
2021/04/02 10:56:06;;;;;;;5.67;3.00;;;16.80;99.90;;;;;;4907287;29;20197;-63
2021/04/02 10:58:34;;;;;;;5.87;2.77;;;16.40;99.90;;;;;;4919292;29;20205;-63
2021/04/02 11:01:03;;;;;;;5.47;3.03;;;16.60;99.90;;;;;;4911086;29;20201;-62
2021/04/02 11:03:30;;;;;;;5.53;2.80;;;15.60;99.90;;;;;;4911448;29;20199;-62
2021/04/02 11:05:58;;;;;;;5.33;3.23;;;15.20;99.90;;;;;;4916380;29;20240;-62
2021/04/02 11:08:25;;;;;;;8.03;2.83;;;15.00;99.90;;;;;;4914638;29;20296;-63
2021/04/02 11:10:55;;;;;;;7.23;3.23;;;14.80;99.90;;;;;;4905048;29;20296;-61
2021/04/02 11:13:22;;;;;;;9.53;3.37;;;15.00;99.90;;;;;;4913753;29;20209;-61
2021/04/02 11:15:50;;;;;;;6.40;3.10;;;15.40;99.90;;;;;;4910944;29;20193;-61
2021/04/02 11:18:17;;;;;;;4.13;2.77;;;15.90;99.90;;;;;;4910947;29;20565;-61
2021/04/02 11:20:44;;;;;;;6.10;3.10;;;15.60;99.90;;;;;;4920205;29;20216;-61
2021/04/02 11:23:16;;;;;;;6.83;2.90;;;15.40;99.90;;;;;;4916716;29;20668;-63
2021/04/02 11:25:43;;;;;;;8.13;3.40;;;14.50;99.90;;;;;;4914864;29;20244;-63
2021/04/02 11:28:12;;;;;;;11.63;3.40;;;14.10;99.90;;;;;;4916014;29;20224;-63
2021/04/02 11:30:40;;;;;;;7.07;3.53;;;14.00;99.90;;;;;;4912471;29;20233;-63
2021/04/02 11:33:07;;;;;;;4.27;2.73;;;14.70;99.90;;;;;;4916571;29;20200;-63
2021/04/02 11:35:35;;;;;;;8.10;2.97;;;14.80;99.90;;;;;;4918330;29;20264;-63
2021/04/02 11:38:03;;;;;;;8.33;3.77;;;14.70;99.90;;;;;;4916350;29;20212;-60
2021/04/02 11:40:31;;;;;;;5.10;3.30;;;14.40;99.90;;;;;;4905067;29;20206;-63
2021/04/02 11:42:58;;;;;;;8.50;3.30;;;15.10;99.90;;;;;;4914794;29;20201;-60
2021/04/02 11:45:27;;;;;;;4.83;3.07;;;15.90;99.90;;;;;;4913024;29;20620;-63
2021/04/02 11:47:57;;;;;;;6.03;3.33;;;15.50;99.90;;;;;;4909865;29;20198;-62
2021/04/02 11:50:24;;;;;;;6.73;3.37;;;15.30;99.90;;;;;;4908885;29;20200;-62
2021/04/02 11:52:53;;;;;;;7.67;3.40;;;13.90;99.90;;;;;;4910726;29;20197;-63
2021/04/02 11:55:21;;;;;;;4.80;3.60;;;13.20;99.90;;;;;;4913849;29;20189;-62
2021/04/02 11:57:48;;;;;;;6.77;4.07;;;14.30;99.90;;;;;;4912941;29;20197;-63
2021/04/02 12:00:17;;;;;;;4.40;3.23;;;15.50;99.90;;;;;;4911912;29;20197;-62
2021/04/02 12:02:46;;;;;;;5.40;3.63;;;15.40;99.90;;;;;;4911644;29;20221;-63
2021/04/02 12:05:14;;;;;;;4.27;3.50;;;15.60;99.90;;;;;;4914298;29;20219;-62
2021/04/02 12:07:41;;;;;;;7.60;4.50;;;15.70;99.90;;;;;;4921098;29;20264;-62
2021/04/02 12:10:10;;;;;;;9.40;5.70;;;15.40;99.90;;;;;;4917857;29;20799;-62
2021/04/02 12:12:38;;;;;;;10.87;6.13;;;14.90;99.90;;;;;;4912269;29;20194;-62
2021/04/02 12:15:07;;;;;;;9.70;7.63;;;14.40;99.90;;;;;;4914405;29;20220;-62
2021/04/02 12:17:36;;;;;;;12.83;10.77;;;13.70;99.90;;;;;;4920555;29;20335;-62
2021/04/02 12:20:09;;;;;;;14.70;11.60;;;13.40;99.90;;;;;;4910628;29;20193;-62
2021/04/02 12:22:37;;;;;;;17.07;11.23;;;13.50;99.90;;;;;;4912648;29;20259;-62
2021/04/02 12:25:06;;;;;;;14.47;9.83;;;14.30;99.90;;;;;;4916702;29;20220;-62
2021/04/02 12:27:33;;;;;;;13.83;11.00;;;14.70;99.90;;;;;;4898617;29;20206;-62
2021/04/02 12:30:08;;;;;;;14.33;12.17;;;14.50;99.90;;;;;;4909735;29;20229;-62
2021/04/02 12:32:35;;;;;;;14.43;9.23;;;13.60;99.90;;;;;;4917815;29;20383;-62
2021/04/02 12:35:04;;;;;;;11.33;9.80;;;14.30;99.90;;;;;;4912072;29;20202;-62
2021/04/02 12:37:32;;;;;;;12.73;10.27;;;14.20;99.90;;;;;;4912629;29;20220;-62
2021/04/02 12:40:01;;;;;;;14.27;11.30;;;13.60;99.90;;;;;;4910722;29;20654;-63
2021/04/02 12:42:28;;;;;;;16.77;11.80;;;13.20;99.90;;;;;;4917670;29;20232;-62
2021/04/02 12:44:57;;;;;;;14.70;12.40;;;13.10;99.90;;;;;;4914539;29;20684;-61
2021/04/02 12:47:24;;;;;;;16.10;12.40;;;12.60;99.90;;;;;;4914753;29;20201;-62
2021/04/02 12:49:52;;;;;;;13.43;12.03;;;12.20;99.90;;;;;;4925975;29;20299;-62
2021/04/02 12:52:19;;;;;;;13.70;12.30;;;12.80;99.90;;;;;;4915751;29;20200;-62
2021/04/02 12:54:48;;;;;;;19.20;14.53;;;13.50;99.90;;;;;;4915342;29;20610;-62